• Join FlightAware (Why Join?)
  • Login
  • US Flag 
03:58AM EDT


 

Airport Tracker/Info


-or-


 

Live Flight TrackerFlight Track Log ✈ EJA396 ✈ 15-Dec-2013 ✈ KAPF - KCLE

Flight Track Log - Related Links

Times and Time Zones

All times are in EST time to prevent confusion due to time zone crossing. See the EJA396 flight status page for this flight to view local times or setup timezone preferences in your user account.

Time Position Orientation Groundspeed Altitude Reporting Facility
EST Latitude Longitude Course Direction KTS MPH feet Rate Location/Type
02:11PM 26.1406 -81.9314 342° North 239 275 6,900  Level Miami Center
02:12PM 26.2072 -81.9389 354° North 305 351 9,900 2,280 Climbing Miami Center
02:13PM 26.3061 -81.9178 11° North 340 391 11,500 2,280 Climbing Miami Center
02:14PM 26.4092 -81.8942 12° North 367 422 14,500 3,000 Climbing Miami Center
02:15PM 26.9047 -81.7790 342° North  Level Estimated
02:15PM 26.5231 -81.8642 13° North 373 429 17,500  Level Miami Center
02:16PM 26.6239 -81.8408 12° North 373 429 20,200 2,640 Climbing Miami Center
02:17PM 26.7292 -81.8150 12° North 373 429 22,800 1,380 Climbing Miami Center
02:18PM 26.8469 -81.7875 12° North 393 452 23,000 60 Climbing Miami Center
02:19PM 26.9797 -81.7558 12° North 432 497 23,000 360 Level Miami Center
02:20PM 27.0919 -81.7697 354° North 469 540 23,800 1,440 Climbing Miami Center
02:21PM 27.2167 -81.7822 355° North 453 521 25,900 2,280 Climbing Miami Center
02:22PM 27.3497 -81.7364 17° North 448 516 28,400 1,800 Climbing Miami Center
02:23PM 27.4742 -81.6972 16° North 458 527 29,500 1,020 Climbing Miami Center
02:24PM 27.6031 -81.6533 17° North 472 543 30,500 960 Climbing Miami Center
02:25PM 27.7233 -81.6139 16° North 486 559 31,500 900 Climbing Miami Center
02:26PM 27.8583 -81.5681 17° North 491 565 32,300 900 Climbing Miami Center
02:27PM 27.9933 -81.5242 16° North 497 572 33,300 960 Climbing Miami Center
02:28PM 28.1319 -81.4947 11° North 497 572 34,300 960 Climbing Miami Center
02:29PM 28.2719 -81.4861 North 497 572 35,300 960 Climbing Miami Center
02:30PM 28.4100 -81.4753 North 497 572 36,300 1,020 Climbing Miami Center
02:31PM 28.6053 -81.4619 North 504 580 37,700 1,020 Climbing Jacksonville Center
02:32PM 28.7408 -81.4528 North 499 574 38,700 600 Climbing Jacksonville Center
02:33PM 28.8703 -81.4486 North 480 552 39,000 120 Climbing Jacksonville Center
02:34PM 28.9917 -81.4825 346° North 459 528 39,000  Level Jacksonville Center
02:35PM 29.1131 -81.5236 344° North 447 514 39,000  Level Jacksonville Center
02:36PM 29.2178 -81.5625 342° North 442 509 39,000  Level Jacksonville Center
02:37PM 29.3394 -81.6039 343° North 442 509 39,000  Level Jacksonville Center
02:38PM 29.4586 -81.6403 345° North 442 509 39,000  Level Jacksonville Center
02:39PM 29.5861 -81.6556 354° North 442 509 39,000  Level Jacksonville Center
02:40PM 29.7178 -81.6731 353° North 460 529 39,000  Level Jacksonville Center
02:41PM 29.8475 -81.6881 354° North 466 536 39,000  Level Jacksonville Center
02:42PM 29.9728 -81.7033 354° North 466 536 39,000  Level Jacksonville Center
02:43PM 30.1003 -81.7161 355° North 466 536 39,000  Level Jacksonville Center
02:44PM 30.2444 -81.7311 355° North 461 531 39,000  Level Jacksonville Center
02:45PM 30.3700 -81.7467 354° North 463 533 39,000  Level Jacksonville Center
02:46PM 30.4975 -81.7619 354° North 463 533 39,000  Level Jacksonville Center
02:47PM 30.6311 -81.7797 353° North 468 539 39,000  Level Jacksonville Center
02:48PM 30.7586 -81.7950 354° North 468 539 39,000  Level Jacksonville Center
02:49PM 30.8883 -81.8128 353° North 463 533 39,000  Level Jacksonville Center
02:50PM 31.0178 -81.8283 354° North 463 533 39,000  Level Jacksonville Center
02:51PM 31.1475 -81.8439 354° North 463 533 39,000  Level Jacksonville Center
02:52PM 31.2769 -81.8594 354° North 468 539 39,000  Level Jacksonville Center
02:53PM 31.3942 -81.8728 354° North 461 531 39,000  Level Jacksonville Center
02:56PM 31.7972 -81.9253 354° North 488 562 39,000  Level Atlanta Center
02:57PM 31.9269 -81.9392 355° North 483 556 39,000  Level Atlanta Center
02:58PM 32.0567 -81.9558 354° North 483 556 39,000  Level Atlanta Center
02:59PM 32.1906 -81.9725 354° North 483 556 39,000  Level Atlanta Center
03:00PM 32.3203 -81.9889 354° North 478 550 39,000  Level Atlanta Center
03:01PM 32.4542 -82.0031 355° North 478 550 39,000  Level Atlanta Center
03:02PM 32.5817 -82.0200 354° North 478 550 39,000  Level Atlanta Center
03:03PM 32.7133 -82.0367 354° North 473 544 39,000  Level Atlanta Center
03:04PM 32.8450 -82.0508 355° North 473 544 39,000  Level Atlanta Center
03:05PM 32.9808 -82.0478 North 478 550 39,000  Level Atlanta Center
03:06PM 33.1206 -82.0397 North 484 557 39,000  Level Atlanta Center
03:07PM 33.2581 -82.0317 North 489 563 39,000  Level Atlanta Center
03:08PM 33.4019 -82.0233 North 496 571 39,000  Level Atlanta Center
03:09PM 33.5417 -82.0150 North 496 571 39,000  Level Atlanta Center
03:10PM 33.6669 -82.0069 North 496 571 39,000  Level Atlanta Center
03:11PM 33.8086 -81.9986 North 496 571 39,000  Level Atlanta Center
03:12PM 33.9483 -81.9903 North 496 571 39,000  Level Atlanta Center
03:13PM 34.0900 -81.9819 North 496 571 39,000  Level Atlanta Center
03:14PM 34.2297 -81.9761 North 496 571 39,000  Level Atlanta Center
03:15PM 34.3675 -81.9678 North 496 571 39,000  Level Atlanta Center
03:16PM 34.5092 -81.9592 North 496 571 39,000  Level Atlanta Center
03:17PM 34.6447 -81.9508 North 496 571 39,000  Level Atlanta Center
03:18PM 34.7822 -81.9447 North 496 571 39,000  Level Atlanta Center
03:19PM 34.9367 -81.9383 North 496 571 39,000  Level Atlanta Center
03:20PM 35.0783 -81.9297 North 496 571 39,000  Level Atlanta Center
03:21PM 35.2139 -81.9236 North 496 571 39,000  Level Atlanta Center
03:22PM 35.3494 -81.9178 North 496 571 39,000  Level Atlanta Center
03:23PM 35.4892 -81.9114 North 496 571 39,000  Level Atlanta Center
03:24PM 35.6100 -81.9033 North 496 571 39,000  Level Atlanta Center
03:25PM 35.7497 -81.8972 North 496 571 39,000  Level Atlanta Center
03:26PM 35.8831 -81.8908 North 491 565 39,000  Level Atlanta Center
03:27PM 36.0228 -81.8847 North 491 565 39,000  Level Atlanta Center
03:28PM 36.1581 -81.8761 North 491 565 39,000  Level Atlanta Center
03:29PM 36.2914 -81.8725 North 486 559 39,000  Level Atlanta Center
03:30PM 36.4289 -81.8636 North 486 559 39,000  Level Atlanta Center
03:31PM 36.5789 -81.8569 North 486 559 39,000  Level Atlanta Center
03:32PM 36.7144 -81.8506 North 486 559 39,000  Level Atlanta Center
03:34PM 36.9878 -81.8375 North 493 567 39,000  Level Indianapolis Center
03:35PM 37.1236 -81.8306 North 490 564 39,000  Level Indianapolis Center
03:36PM 37.2594 -81.8250 North 489 563 39,000  Level Indianapolis Center
03:37PM 37.4183 -81.8172 North 491 565 39,000  Level Indianapolis Center
03:38PM 37.5514 -81.8100 North 483 556 39,000  Level Indianapolis Center
03:39PM 37.6858 -81.8058 North 484 557 39,000  Level Indianapolis Center
03:40PM 37.8194 -81.7981 North 484 557 39,000  Level Indianapolis Center
03:41PM 37.9486 -81.8081 357° North 478 550 39,000  Level Indianapolis Center
03:42PM 38.0778 -81.8208 356° North 469 540 39,000  Level Indianapolis Center
03:44PM 38.2081 -81.8361 355° North 468 539 39,000 -180 Level Indianapolis Center
03:45PM 38.3647 -81.8569 354° North 469 540 38,700 -780 Descending Indianapolis Center
03:46PM 38.4978 -81.8733 354° North 473 544 37,500 -1,380 Descending Indianapolis Center
03:47PM 38.6228 -81.8897 354° North 451 519 35,900 -1,680 Descending Indianapolis Center
03:48PM 38.7500 -81.9042 355° North 452 520 34,100 -960 Descending Indianapolis Center
03:49PM 38.8800 -81.9219 354° North 460 529 34,000 -60 Descending Indianapolis Center
03:50PM 39.0119 -81.9383 354° North 470 541 34,000  Level Indianapolis Center
03:51PM 39.1472 -81.9458 358° North 481 554 34,000  Level Indianapolis Center
03:52PM 39.2792 -81.9542 357° North 474 545 34,000 -540 Level Indianapolis Center
03:53PM 39.4106 -81.9619 357° North 473 544 33,000 -1,800 Descending Indianapolis Center
03:54PM 39.5564 -81.9664 359° North 435 501 30,300 -2,520 Descending Indianapolis Center
03:55PM 39.6811 -81.9756 357° North 446 513 27,900 -2,340 Descending Indianapolis Center
03:56PM 39.8033 -81.9792 359° North 440 506 25,500 -2,340 Descending Indianapolis Center
03:57PM 39.9167 -81.9875 357° North 411 473 23,100 -1,260 Descending Indianapolis Center
03:58PM 40.0311 -81.9889 359° North 404 465 23,000 -60 Descending Indianapolis Center
03:59PM 40.1422 -81.9953 357° North 399 459 23,000 -600 Level Indianapolis Center
04:00PM 40.2722 -82.0017 358° North 397 457 21,800 -1,260 Descending Indianapolis Center
04:01PM 40.3828 -82.0067 358° North 396 456 20,500 -1,620 Descending Indianapolis Center
04:02PM 40.4889 -82.0144 357° North 383 441 18,500 -1,800 Descending Indianapolis Center
04:03PM 40.5933 -81.9900 10° North 388 447 16,800 -1,560 Descending Indianapolis Center
04:04PM 40.6550 -81.9331 35° Northeast 398 458 15,800 -1,560 Descending Cleveland Center
04:05PM 40.7544 -81.8333 37° Northeast 384 442 14,000 -1,800 Descending Cleveland Center
04:06PM 40.8339 -81.7536 37° Northeast 360 414 12,100 -1,860 Descending Cleveland Center
04:06PM 40.8492 -81.7378 38° Northeast 338 389 11,800 -1,740 Descending Cleveland Center
04:07PM 40.9069 -81.6806 37° Northeast 329 379 10,400 -1,740 Descending Cleveland Center
04:07PM 40.9081 -81.6800 21° North 334 384 10,300 -480 Descending Cleveland Center
04:08PM 40.9886 -81.6361 22° Northeast 318 366 9,900 -180 Descending Cleveland Center
04:09PM 41.0761 -81.6686 344° North 294 338 10,000  Climbing Cleveland Center
04:10PM 41.1561 -81.6897 349° North 296 341 10,000  Level Cleveland Center
04:10PM 41.1478 -81.6850 157° South 296 341 10,000 -600 Level Cleveland Center
04:11PM 41.2203 -81.7000 351° North 202 232 9,400 -600 Descending Cleveland Center
04:11PM 41.2242 -81.7000 360° North 225 259 9,400 -1,140 Level Cleveland Center
04:12PM 41.2758 -81.7117 350° North 218 251 8,400 -1,200 Descending Cleveland Center
04:12PM 41.2861 -81.7125 357° North 218 251 8,200 -420 Descending Cleveland Center
04:13PM 41.3292 -81.7258 347° North 186 214 8,000 -240 Descending Cleveland Center
04:13PM 41.3403 -81.7264 358° North 192 221 8,000  Level Cleveland Center
04:14PM 41.3767 -81.7336 352° North 173 199 8,000 -120 Level Cleveland Center
04:14PM 41.3894 -81.7244 28° Northeast 180 207 7,900 -840 Descending Cleveland Center
04:15PM 41.4228 -81.6656 53° Northeast 242 278 7,100 -900 Descending Cleveland Center
04:15PM 41.4267 -81.6592 51° Northeast 215 247 7,000 -1,140 Descending Cleveland Center
04:16PM 41.4619 -81.6050 49° Northeast 213 245 6,000 -1,020 Descending Cleveland Center
04:16PM 41.4647 -81.5972 65° Northeast 215 247 6,000 -720 Level Cleveland Center
04:17PM 41.5083 -81.5789 17° North 183 211 5,300 -540 Descending Cleveland Center
04:17PM 41.5128 -81.5794 355° North 202 232 5,500 -1,080 Climbing Cleveland Center
04:18PM 41.5542 -81.6133 329° Northwest 182 209 4,000 -840 Descending Cleveland Center
04:19PM 41.5397 -81.6508 243° Southwest 148 170 4,000  Level Cleveland Center
04:19PM 41.5344 -81.6564 218° Southwest 161 185 4,000 -120 Level Cleveland Center
04:20PM 41.5100 -81.6992 233° Southwest 174 200 3,900 -300 Descending Cleveland Center
04:20PM 41.5058 -81.7044 223° Southwest 161 185 3,700 -1,020 Descending Cleveland Center
04:21PM 41.4781 -81.7500 231° Southwest 165 190 2,900 -1,020 Descending Cleveland Center
04:22PM 41.4717 -81.7581 223° Southwest 163 188 2,700 -240 Descending Cleveland Center
04:22PM 41.4539 -81.7850 229° Southwest 117 135 2,700 180 Level Cleveland Center
04:23PM 41.4475 -81.7936 225° Southwest 141 162 2,900 1,020 Climbing Cleveland Center
04:23PM 41.4008 -81.8378 215° Southwest 252 290 4,000 1,020 Climbing Cleveland Center
04:24PM 41.3978 -81.8369 168° South 204 235 4,000  Level Cleveland Center
04:25PM 41.3331 -81.7961 155° Southeast 259 298 4,000  Level Cleveland Center
04:25PM 41.3372 -81.8044 304° West 238 274 4,000  Level Cleveland Center
04:25PM 41.3503 -81.7461 73° East 199 229 4,000  Level Cleveland Center
04:26PM 41.3592 -81.7336 47° Northeast 217 250 4,000  Level Cleveland Center
04:26PM 41.3872 -81.6878 51° Northeast 201 231 4,000  Level Cleveland Center
04:27PM 41.3956 -81.6739 51° Northeast 206 237 4,000  Level Cleveland Center
04:28PM 41.4314 -81.6169 50° Northeast 205 236 4,000  Level Cleveland Center
04:28PM 41.4397 -81.6044 48° Northeast 206 237 4,000  Level Cleveland Center
04:29PM 41.4717 -81.5675 41° Northeast 191 220 4,000  Level Cleveland Center
04:29PM 41.4808 -81.5578 38° Northeast 201 231 4,000  Level Cleveland Center
04:29PM 41.5139 -81.5406 21° North 181 208 4,000  Level Cleveland Center
04:30PM 41.5239 -81.5492 327° Northwest 180 207 4,000  Level Cleveland Center
04:30PM 41.5511 -81.5689 332° Northwest 156 180 4,000  Level Cleveland Center
04:31PM 41.5542 -81.5842 285° West 165 190 4,000  Level Cleveland Center
04:31PM 41.5489 -81.6189 259° West 153 176 4,000  Level Cleveland Center
04:32PM 41.5417 -81.6375 243° Southwest 155 178 4,000  Level Cleveland Center
04:32PM 41.5297 -81.6661 241° Southwest 155 178 4,000  Level Cleveland Center
04:33PM 41.5194 -81.6836 232° Southwest 150 173 4,000 -300 Level Cleveland Center
04:33PM 41.5028 -81.7092 229° Southwest 150 173 3,700 -780 Descending Cleveland Center
04:34PM 41.4875 -81.7336 230° Southwest 150 173 3,200 -900 Descending Cleveland Center
04:34PM 41.4758 -81.7522 230° Southwest 148 170 2,800 -780 Descending Cleveland Center
04:35PM 41.4628 -81.7717 228° Southwest 143 165 2,400 -600 Descending Cleveland Center
04:35PM 41.4558 -81.7853 236° Southwest 110 127 2,200 -600 Descending Cleveland Center
04:36PM 41.4433 -81.8033 227° Southwest 121 139 1,800 -660 Descending Cleveland Center
04:37PM 41.4339 -81.8208 234° Southwest 116 133 1,500 -600 Descending Cleveland Center
04:37PM 41.4236 -81.8358 228° Southwest 115 132 1,200 -480 Descending Cleveland Center
04:38PM 41.4036 -81.8661 229° Southwest 106 122 800 -420 Descending Cleveland Center